createdAt,value
2017-03-16T00:00:59.214Z,0
2017-03-16T00:02:11.935Z,0
2017-03-16T00:03:25.182Z,0
2017-03-16T00:04:38.503Z,0
2017-03-16T00:05:51.746Z,0
2017-03-16T00:07:05.021Z,0
2017-03-16T00:08:18.270Z,0
2017-03-16T00:09:31.493Z,0
2017-03-16T00:10:44.742Z,0
2017-03-16T00:11:58.038Z,0
2017-03-16T00:13:11.277Z,0
2017-03-16T00:14:24.545Z,0
2017-03-16T00:15:37.278Z,0
2017-03-16T00:16:50.501Z,0
2017-03-16T00:18:03.753Z,0
2017-03-16T00:19:17.040Z,0
2017-03-16T00:20:30.299Z,0
2017-03-16T00:21:43.529Z,0
2017-03-16T00:22:56.790Z,0
2017-03-16T00:24:10.027Z,0
2017-03-16T00:25:22.754Z,0
2017-03-16T00:26:35.480Z,0
2017-03-16T00:27:48.745Z,0
2017-03-16T00:29:02.027Z,0
2017-03-16T00:30:15.273Z,0
2017-03-16T00:31:28.546Z,0
2017-03-16T00:32:41.813Z,0
2017-03-16T00:33:55.151Z,0
2017-03-16T00:35:08.395Z,0
2017-03-16T00:36:21.645Z,0
2017-03-16T00:37:34.365Z,0
2017-03-16T00:38:47.109Z,0
2017-03-16T00:40:00.356Z,0
2017-03-16T00:41:13.631Z,0
2017-03-16T00:42:26.893Z,0
2017-03-16T00:43:40.126Z,0
2017-03-16T00:44:53.353Z,0
2017-03-16T00:46:06.596Z,0
2017-03-16T00:47:19.383Z,0
2017-03-16T00:48:32.636Z,0
2017-03-16T00:49:45.895Z,0
2017-03-16T00:50:58.100Z,0
2017-03-16T00:52:11.322Z,0
2017-03-16T00:53:24.547Z,0
2017-03-16T00:54:37.778Z,0
2017-03-16T00:55:50.497Z,0
2017-03-16T00:57:03.736Z,0
2017-03-16T00:58:16.496Z,0
2017-03-16T00:59:29.229Z,0
2017-03-16T01:00:42.481Z,0
2017-03-16T01:01:55.752Z,0
2017-03-16T01:03:09.003Z,0
2017-03-16T01:04:22.250Z,0
2017-03-16T01:05:35.003Z,0
2017-03-16T01:06:48.296Z,0
2017-03-16T01:08:01.019Z,0
2017-03-16T01:09:14.251Z,0
2017-03-16T01:10:26.989Z,0
2017-03-16T01:11:40.257Z,0
2017-03-16T01:12:52.992Z,0
2017-03-16T01:14:06.243Z,0
2017-03-16T01:15:19.527Z,0
2017-03-16T01:16:32.787Z,0
2017-03-16T01:17:45.006Z,0
2017-03-16T01:18:58.314Z,0
2017-03-16T01:20:11.552Z,0
2017-03-16T01:21:24.791Z,0
2017-03-16T01:22:37.557Z,0
2017-03-16T01:23:50.790Z,0
2017-03-16T01:25:04.047Z,0
2017-03-16T01:26:16.242Z,0
2017-03-16T01:27:29.492Z,0
2017-03-16T01:28:42.726Z,0
2017-03-16T01:29:55.475Z,0
2017-03-16T01:31:08.756Z,0
2017-03-16T01:32:22.237Z,0
2017-03-16T01:33:35.504Z,0
2017-03-16T01:34:48.793Z,0
2017-03-16T01:36:01.534Z,0
2017-03-16T01:37:14.769Z,0
2017-03-16T01:38:26.990Z,0
2017-03-16T01:39:40.241Z,0
2017-03-16T01:40:53.559Z,0
2017-03-16T01:42:06.834Z,0
2017-03-16T01:43:19.072Z,0
2017-03-16T01:44:31.811Z,0
2017-03-16T01:45:45.045Z,0
2017-03-16T01:46:58.274Z,0
2017-03-16T01:48:11.494Z,0
2017-03-16T01:49:24.780Z,0
2017-03-16T01:50:38.014Z,0
2017-03-16T01:51:51.238Z,0
2017-03-16T01:53:04.460Z,0
2017-03-16T01:54:17.191Z,0
2017-03-16T01:55:29.904Z,0
2017-03-16T01:56:43.148Z,0
2017-03-16T01:57:55.364Z,0
2017-03-16T01:59:08.598Z,0
2017-03-16T02:00:21.836Z,0
2017-03-16T02:01:34.570Z,0
2017-03-16T02:02:47.304Z,0
2017-03-16T02:04:00.564Z,0
2017-03-16T02:05:13.301Z,0
2017-03-16T02:06:26.579Z,0
2017-03-16T02:07:39.298Z,0
2017-03-16T02:08:52.557Z,0
2017-03-16T02:10:05.280Z,0
2017-03-16T02:11:18.024Z,0
2017-03-16T02:12:30.231Z,0
2017-03-16T02:13:43.565Z,0
2017-03-16T02:14:56.383Z,0
2017-03-16T02:16:09.721Z,0
2017-03-16T02:17:22.447Z,0
2017-03-16T02:18:35.184Z,0
2017-03-16T02:19:48.411Z,0
2017-03-16T02:21:01.659Z,0
2017-03-16T02:22:14.972Z,0
2017-03-16T02:23:28.229Z,0
2017-03-16T02:24:41.466Z,0
2017-03-16T02:25:54.185Z,0
2017-03-16T02:27:07.433Z,0
2017-03-16T02:28:19.662Z,0
2017-03-16T02:29:32.428Z,0
2017-03-16T02:30:45.828Z,0
2017-03-16T02:31:59.210Z,0
2017-03-16T02:33:11.921Z,0
2017-03-16T02:34:25.177Z,0
2017-03-16T02:35:38.425Z,0
2017-03-16T02:36:51.650Z,0
2017-03-16T02:38:04.901Z,0
2017-03-16T02:39:18.155Z,0
2017-03-16T02:40:31.395Z,0
2017-03-16T02:41:44.626Z,0
2017-03-16T02:42:57.352Z,0
2017-03-16T02:44:10.566Z,0
2017-03-16T02:45:23.829Z,0
2017-03-16T02:46:37.078Z,0
2017-03-16T02:47:49.785Z,0
2017-03-16T02:49:03.061Z,0
2017-03-16T02:50:16.347Z,0
2017-03-16T02:51:29.628Z,0
2017-03-16T02:52:42.881Z,0
2017-03-16T02:53:56.124Z,0
2017-03-16T02:55:08.321Z,0
2017-03-16T02:56:21.056Z,0
2017-03-16T02:57:34.282Z,0
2017-03-16T02:58:47.618Z,0
2017-03-16T03:00:00.397Z,0
2017-03-16T03:01:13.637Z,0
2017-03-16T03:02:26.893Z,0
2017-03-16T03:03:39.623Z,0
2017-03-16T03:04:52.833Z,0
2017-03-16T03:06:06.085Z,0
2017-03-16T03:07:19.354Z,0
2017-03-16T03:08:32.621Z,0
2017-03-16T03:09:45.851Z,0
2017-03-16T03:10:58.580Z,0
2017-03-16T03:12:11.857Z,0
2017-03-16T03:13:24.067Z,0
2017-03-16T03:14:37.317Z,0
2017-03-16T03:15:50.579Z,0
2017-03-16T03:17:03.824Z,0
2017-03-16T03:18:17.071Z,0
2017-03-16T03:19:29.805Z,0
2017-03-16T03:20:42.514Z,0
2017-03-16T03:21:55.844Z,0
2017-03-16T03:23:09.538Z,0
2017-03-16T03:24:22.812Z,0
2017-03-16T03:25:35.559Z,0
2017-03-16T03:26:48.789Z,0
2017-03-16T03:28:02.033Z,0
2017-03-16T03:29:15.270Z,0
2017-03-16T03:30:27.988Z,0
2017-03-16T03:31:41.254Z,0
2017-03-16T03:32:53.995Z,0
2017-03-16T03:34:06.788Z,0
2017-03-16T03:35:20.092Z,0
2017-03-16T03:36:33.347Z,0
2017-03-16T03:37:46.082Z,0
2017-03-16T03:38:58.309Z,0
2017-03-16T03:40:11.590Z,0
2017-03-16T03:41:23.791Z,0
2017-03-16T03:42:36.534Z,0
2017-03-16T03:43:49.780Z,0
2017-03-16T03:45:03.032Z,0
2017-03-16T03:46:16.307Z,0
2017-03-16T03:47:29.561Z,0
2017-03-16T03:48:42.290Z,0
2017-03-16T03:49:55.004Z,0
2017-03-16T03:51:08.280Z,0
2017-03-16T03:52:21.002Z,0
2017-03-16T03:53:34.231Z,0
2017-03-16T03:54:46.950Z,0
2017-03-16T03:55:59.253Z,0
2017-03-16T03:57:12.542Z,0
2017-03-16T03:58:25.264Z,0
2017-03-16T03:59:38.036Z,0
2017-03-16T04:00:51.247Z,0
2017-03-16T04:02:03.990Z,0
2017-03-16T04:03:17.253Z,0
2017-03-16T04:04:30.503Z,0
2017-03-16T04:05:43.758Z,0
2017-03-16T04:06:56.996Z,0
2017-03-16T04:08:10.240Z,0
2017-03-16T04:09:22.951Z,0
2017-03-16T04:10:36.192Z,0
2017-03-16T04:11:49.432Z,0
2017-03-16T04:13:02.701Z,0
2017-03-16T04:14:15.957Z,0
2017-03-16T04:15:29.250Z,0
2017-03-16T04:16:42.525Z,0
2017-03-16T04:17:55.787Z,0
2017-03-16T04:19:09.056Z,0
2017-03-16T04:20:22.330Z,0
2017-03-16T04:21:35.594Z,0
2017-03-16T04:22:48.867Z,0
2017-03-16T04:24:02.090Z,0
2017-03-16T04:25:14.793Z,0
2017-03-16T04:26:28.030Z,0
2017-03-16T04:27:41.285Z,0
2017-03-16T04:28:54.528Z,0
2017-03-16T04:30:07.743Z,0
2017-03-16T04:31:20.504Z,0
2017-03-16T04:32:33.778Z,0
2017-03-16T04:33:47.024Z,0
2017-03-16T04:34:59.230Z,0
2017-03-16T04:36:11.948Z,0
2017-03-16T04:37:25.243Z,0
2017-03-16T04:38:38.540Z,0
2017-03-16T04:39:51.761Z,0
2017-03-16T04:41:05.004Z,0
2017-03-16T04:42:18.249Z,0
2017-03-16T04:43:31.507Z,0
2017-03-16T04:44:44.744Z,0
2017-03-16T04:45:57.515Z,0
2017-03-16T04:47:10.746Z,0
2017-03-16T04:48:23.988Z,0
2017-03-16T04:49:36.731Z,0
2017-03-16T04:50:49.951Z,0
2017-03-16T04:52:02.710Z,0
2017-03-16T04:53:15.424Z,0
2017-03-16T04:54:28.741Z,0
2017-03-16T04:55:41.987Z,0
2017-03-16T04:56:55.198Z,0
2017-03-16T04:58:07.911Z,0
2017-03-16T04:59:20.619Z,0
2017-03-16T05:00:33.883Z,0
2017-03-16T05:01:47.113Z,0
2017-03-16T05:03:00.348Z,0
2017-03-16T05:04:13.600Z,0
2017-03-16T05:05:26.360Z,0
2017-03-16T05:06:39.627Z,0
2017-03-16T05:07:52.863Z,0
2017-03-16T05:09:06.123Z,0
2017-03-16T05:10:18.851Z,0
2017-03-16T05:11:32.113Z,0
2017-03-16T05:12:45.376Z,0
2017-03-16T05:13:58.650Z,0
2017-03-16T05:15:11.406Z,0
2017-03-16T05:16:24.643Z,0
2017-03-16T05:17:37.375Z,0
2017-03-16T05:18:50.607Z,0
2017-03-16T05:20:03.869Z,0
2017-03-16T05:21:17.123Z,0
2017-03-16T05:22:30.416Z,0
2017-03-16T05:23:43.148Z,0
2017-03-16T05:24:56.407Z,0
2017-03-16T05:26:09.648Z,0
2017-03-16T05:27:22.914Z,0
2017-03-16T05:28:36.214Z,0
2017-03-16T05:29:48.963Z,0
2017-03-16T05:31:01.700Z,0
2017-03-16T05:32:14.432Z,0
2017-03-16T05:33:26.639Z,0
2017-03-16T05:34:39.384Z,0
2017-03-16T05:35:52.136Z,0
2017-03-16T05:37:05.390Z,0
2017-03-16T05:38:18.154Z,0
2017-03-16T05:39:31.414Z,0
2017-03-16T05:40:44.655Z,0
2017-03-16T05:41:57.391Z,0
2017-03-16T05:43:09.654Z,0
2017-03-16T05:44:22.917Z,0
2017-03-16T05:45:35.652Z,0
2017-03-16T05:46:48.884Z,0
2017-03-16T05:48:02.116Z,0
2017-03-16T05:49:15.373Z,0
2017-03-16T05:50:28.136Z,0
2017-03-16T05:51:40.890Z,0
2017-03-16T05:52:54.175Z,0
2017-03-16T05:54:06.429Z,0
2017-03-16T05:55:19.684Z,0
2017-03-16T05:56:32.967Z,0
2017-03-16T05:57:46.309Z,0
2017-03-16T05:58:59.766Z,0
2017-03-16T06:00:13.008Z,0
2017-03-16T06:01:25.796Z,0
2017-03-16T06:02:38.560Z,0
2017-03-16T06:03:51.808Z,0
2017-03-16T06:05:05.049Z,0
2017-03-16T06:06:18.299Z,0
2017-03-16T06:07:31.588Z,0
2017-03-16T06:08:44.828Z,0
2017-03-16T06:09:58.090Z,0
2017-03-16T06:11:11.354Z,0
2017-03-16T06:12:24.595Z,0
2017-03-16T06:13:37.842Z,0
2017-03-16T06:14:51.102Z,0
2017-03-16T06:16:04.322Z,0
2017-03-16T06:17:17.614Z,0
2017-03-16T06:18:30.906Z,0
2017-03-16T06:19:44.145Z,0
2017-03-16T06:20:57.395Z,0
2017-03-16T06:22:10.171Z,0
2017-03-16T06:23:23.442Z,0
2017-03-16T06:24:36.714Z,0
2017-03-16T06:25:49.999Z,0
2017-03-16T06:27:03.247Z,0
2017-03-16T06:28:16.004Z,0
2017-03-16T06:29:28.776Z,0
2017-03-16T06:30:41.509Z,0
2017-03-16T06:31:54.764Z,0
2017-03-16T06:33:08.021Z,0
2017-03-16T06:34:20.234Z,0
2017-03-16T06:35:33.467Z,0
2017-03-16T06:36:46.698Z,0
2017-03-16T06:37:59.933Z,0
2017-03-16T06:39:13.192Z,0
2017-03-16T06:40:25.932Z,0
2017-03-16T06:41:39.216Z,0
2017-03-16T06:42:51.973Z,0
2017-03-16T06:44:05.197Z,0
2017-03-16T06:45:18.490Z,0
2017-03-16T06:46:31.742Z,0
2017-03-16T06:47:44.999Z,0
2017-03-16T06:48:58.234Z,0
2017-03-16T06:50:11.480Z,0
2017-03-16T06:51:24.744Z,0
2017-03-16T06:52:37.990Z,0
2017-03-16T06:53:50.786Z,0
2017-03-16T06:55:04.039Z,0
2017-03-16T06:56:17.274Z,0
2017-03-16T06:57:30.526Z,0
2017-03-16T06:58:43.243Z,0
2017-03-16T06:59:56.508Z,0
2017-03-16T07:01:09.763Z,0
2017-03-16T07:02:22.996Z,0
2017-03-16T07:03:36.261Z,0
2017-03-16T07:04:49.004Z,0
2017-03-16T07:06:01.758Z,0
2017-03-16T07:07:14.486Z,0
2017-03-16T07:08:27.252Z,0
2017-03-16T07:09:40.494Z,0
2017-03-16T07:10:53.754Z,0
2017-03-16T07:12:07.023Z,0
2017-03-16T07:13:19.764Z,0
2017-03-16T07:14:33.044Z,0
2017-03-16T07:15:46.283Z,0
2017-03-16T07:16:59.536Z,0
2017-03-16T07:18:12.773Z,0
2017-03-16T07:19:26.011Z,0
2017-03-16T07:20:38.743Z,0
2017-03-16T07:21:50.950Z,0
2017-03-16T07:23:03.148Z,0
2017-03-16T07:24:15.880Z,0
2017-03-16T07:25:28.669Z,0
2017-03-16T07:26:41.436Z,0
2017-03-16T07:27:54.659Z,0
2017-03-16T07:29:07.907Z,0
2017-03-16T07:30:20.644Z,0
2017-03-16T07:31:33.895Z,0
2017-03-16T07:32:47.135Z,0
2017-03-16T07:33:59.918Z,0
2017-03-16T07:35:13.145Z,0
2017-03-16T07:36:26.395Z,0
2017-03-16T07:37:39.635Z,0
2017-03-16T07:38:52.878Z,0
2017-03-16T07:40:06.135Z,0
2017-03-16T07:41:19.388Z,0
2017-03-16T07:42:32.080Z,0
2017-03-16T07:43:45.354Z,0
2017-03-16T07:44:58.572Z,0
2017-03-16T07:46:11.842Z,0
2017-03-16T07:47:25.083Z,0
2017-03-16T07:48:38.305Z,0
2017-03-16T07:49:50.028Z,0
2017-03-16T07:51:03.241Z,0
2017-03-16T07:52:16.480Z,0
2017-03-16T07:53:29.227Z,0
2017-03-16T07:54:42.474Z,0
2017-03-16T07:55:55.717Z,0
2017-03-16T07:57:08.447Z,0
2017-03-16T07:58:21.183Z,0
2017-03-16T07:59:33.926Z,0
2017-03-16T08:00:47.192Z,0
2017-03-16T08:02:00.447Z,0
2017-03-16T08:03:13.195Z,0
2017-03-16T08:04:26.460Z,0
2017-03-16T08:05:39.499Z,0
2017-03-16T08:06:52.898Z,0
2017-03-16T08:08:05.617Z,0
2017-03-16T08:09:18.875Z,0
2017-03-16T08:10:31.606Z,0
2017-03-16T08:11:44.333Z,0
2017-03-16T08:12:57.595Z,0
2017-03-16T08:14:10.828Z,0
2017-03-16T08:15:23.581Z,0
2017-03-16T08:16:36.833Z,0
2017-03-16T08:17:50.078Z,0
2017-03-16T08:19:02.808Z,0
2017-03-16T08:20:16.060Z,0
2017-03-16T08:21:28.787Z,0
2017-03-16T08:22:42.112Z,0
2017-03-16T08:23:55.355Z,0
2017-03-16T08:25:08.121Z,0
2017-03-16T08:26:21.420Z,0
2017-03-16T08:27:34.680Z,0
2017-03-16T08:28:47.930Z,0
2017-03-16T08:30:00.654Z,0
2017-03-16T08:31:13.352Z,0
2017-03-16T08:32:26.618Z,0
2017-03-16T08:33:39.887Z,0
2017-03-16T08:34:52.643Z,0
2017-03-16T08:36:05.367Z,0
2017-03-16T08:37:18.168Z,0
2017-03-16T08:38:30.910Z,0
2017-03-16T08:39:43.665Z,0
2017-03-16T08:40:56.959Z,0
2017-03-16T08:42:09.167Z,4
2017-03-16T08:43:22.381Z,0
2017-03-16T08:44:35.659Z,4
2017-03-16T08:45:48.918Z,8
2017-03-16T08:47:02.173Z,4
2017-03-16T08:48:14.907Z,8
2017-03-16T08:49:27.633Z,12
2017-03-16T08:50:40.866Z,16
2017-03-16T08:51:53.578Z,24
2017-03-16T08:53:06.832Z,32
2017-03-16T08:54:20.095Z,40
2017-03-16T08:55:33.348Z,56
2017-03-16T08:56:46.652Z,76
2017-03-16T08:57:59.909Z,104
2017-03-16T08:59:13.128Z,132
2017-03-16T09:00:25.832Z,172
2017-03-16T09:01:39.113Z,212
2017-03-16T09:02:51.325Z,264
2017-03-16T09:04:04.556Z,328
2017-03-16T09:05:17.781Z,400
2017-03-16T09:06:31.010Z,480
2017-03-16T09:07:44.242Z,572
2017-03-16T09:08:57.468Z,672
2017-03-16T09:10:10.167Z,784
2017-03-16T09:11:22.915Z,908
2017-03-16T09:12:36.139Z,1036
2017-03-16T09:13:48.865Z,1176
2017-03-16T09:15:02.143Z,1328
2017-03-16T09:16:14.350Z,1492
2017-03-16T09:17:26.570Z,1664
2017-03-16T09:18:39.313Z,1856
2017-03-16T09:19:52.030Z,2080
2017-03-16T09:21:05.271Z,2396
2017-03-16T09:22:17.261Z,2708
2017-03-16T09:23:30.693Z,3056
2017-03-16T09:24:43.942Z,3396
2017-03-16T09:25:57.192Z,3780
2017-03-16T09:27:10.440Z,4180
2017-03-16T09:28:23.677Z,4572
2017-03-16T09:29:36.957Z,4916
2017-03-16T09:30:50.247Z,5232
2017-03-16T09:32:03.491Z,5704
2017-03-16T09:33:16.749Z,6088
2017-03-16T09:34:30.003Z,6372
2017-03-16T09:35:42.775Z,6968
2017-03-16T09:36:55.531Z,7432
2017-03-16T09:38:08.787Z,7968
2017-03-16T09:39:21.503Z,8668
2017-03-16T09:40:34.739Z,8924
2017-03-16T09:41:47.997Z,9624
2017-03-16T09:43:01.242Z,10216
2017-03-16T09:44:14.491Z,10784
2017-03-16T09:45:27.763Z,11312
2017-03-16T09:46:41.013Z,12088
2017-03-16T09:47:54.283Z,12784
2017-03-16T09:49:06.994Z,14004
2017-03-16T09:50:20.242Z,14388
2017-03-16T09:51:32.967Z,15296
2017-03-16T09:52:45.211Z,15968
2017-03-16T09:53:57.939Z,16224
2017-03-16T09:55:10.668Z,17600
2017-03-16T09:56:22.891Z,18048
2017-03-16T09:57:36.199Z,18624
2017-03-16T09:58:48.926Z,19296
2017-03-16T10:00:02.181Z,19584
2017-03-16T10:01:14.397Z,20480
2017-03-16T10:02:26.614Z,21504
2017-03-16T10:03:39.344Z,21984
2017-03-16T10:04:52.604Z,22432
2017-03-16T10:06:05.813Z,22816
2017-03-16T10:07:19.051Z,23296
2017-03-16T10:08:32.310Z,23424
2017-03-16T10:09:45.574Z,23840
2017-03-16T10:10:58.288Z,25056
2017-03-16T10:12:11.572Z,25376
2017-03-16T10:13:24.330Z,26528
2017-03-16T10:14:37.574Z,27136
2017-03-16T10:15:50.817Z,28640
2017-03-16T10:17:03.575Z,28704
2017-03-16T10:18:16.841Z,29504
2017-03-16T10:19:30.102Z,29536
2017-03-16T10:20:42.855Z,30368
2017-03-16T10:21:56.111Z,29984
2017-03-16T10:23:08.863Z,31072
2017-03-16T10:24:22.118Z,32096
2017-03-16T10:25:34.878Z,32000
2017-03-16T10:26:48.156Z,32768
2017-03-16T10:28:01.427Z,34400
2017-03-16T10:29:14.156Z,34464
2017-03-16T10:30:26.397Z,36896
2017-03-16T10:31:39.687Z,37344
2017-03-16T10:32:52.938Z,38880
2017-03-16T10:34:06.172Z,39328
2017-03-16T10:35:18.907Z,39392
2017-03-16T10:36:32.139Z,40480
2017-03-16T10:37:45.462Z,40352
2017-03-16T10:38:58.219Z,40640
2017-03-16T10:40:10.962Z,41184
2017-03-16T10:41:23.190Z,42624
2017-03-16T10:42:36.407Z,43104
2017-03-16T10:43:49.194Z,41888
2017-03-16T10:45:02.464Z,46368
2017-03-16T10:46:15.730Z,47008
2017-03-16T10:47:28.980Z,47296
2017-03-16T10:48:42.234Z,47936
2017-03-16T10:49:54.968Z,47136
2017-03-16T10:51:08.227Z,49152
2017-03-16T10:52:20.961Z,50464
2017-03-16T10:53:33.708Z,50816
2017-03-16T10:54:46.965Z,51520
2017-03-16T10:56:00.109Z,52064
2017-03-16T10:57:13.546Z,49920
2017-03-16T10:58:26.849Z,49952
2017-03-16T10:59:40.075Z,50336
2017-03-16T11:00:53.351Z,54528
2017-03-16T11:02:06.102Z,58464
2017-03-16T11:03:18.813Z,56128
2017-03-16T11:04:31.065Z,56672
2017-03-16T11:05:44.353Z,55712
2017-03-16T11:06:57.632Z,55904
2017-03-16T11:08:10.927Z,55648
2017-03-16T11:09:23.139Z,56192
2017-03-16T11:10:35.378Z,59168
2017-03-16T11:11:48.654Z,59040
2017-03-16T11:13:00.897Z,62656
2017-03-16T11:14:13.672Z,57920
2017-03-16T11:15:26.924Z,55968
2017-03-16T11:16:40.178Z,59072
2017-03-16T11:17:53.450Z,58528
2017-03-16T11:19:06.741Z,55136
2017-03-16T11:20:20.044Z,54400
2017-03-16T11:21:32.791Z,58912
2017-03-16T11:22:45.529Z,63168
2017-03-16T11:23:58.768Z,65824
2017-03-16T11:25:12.117Z,63584
2017-03-16T11:26:24.875Z,66688
2017-03-16T11:27:37.135Z,64192
2017-03-16T11:28:49.879Z,62624
2017-03-16T11:30:03.193Z,61504
2017-03-16T11:31:16.438Z,63104
2017-03-16T11:32:29.186Z,66912
2017-03-16T11:33:42.443Z,64512
2017-03-16T11:34:55.216Z,63360
2017-03-16T11:36:07.975Z,66016
2017-03-16T11:37:21.255Z,67936
2017-03-16T11:38:33.982Z,67008
2017-03-16T11:39:47.264Z,63968
2017-03-16T11:41:00.534Z,61280
2017-03-16T11:42:13.772Z,66752
2017-03-16T11:43:26.532Z,78464
2017-03-16T11:44:39.276Z,71552
2017-03-16T11:45:52.506Z,67584
2017-03-16T11:47:05.269Z,70880
2017-03-16T11:48:17.500Z,69536
2017-03-16T11:49:30.716Z,71168
2017-03-16T11:50:43.960Z,67936
2017-03-16T11:51:56.226Z,64704
2017-03-16T11:53:09.548Z,71360
2017-03-16T11:54:22.327Z,64736
2017-03-16T11:55:35.077Z,51808
2017-03-16T11:56:48.355Z,47776
2017-03-16T11:58:01.614Z,50912
2017-03-16T11:59:14.367Z,61216
2017-03-16T12:00:27.126Z,63904
2017-03-16T12:01:40.421Z,61408
2017-03-16T12:02:53.671Z,70464
2017-03-16T12:04:06.938Z,71648
2017-03-16T12:05:20.208Z,74048
2017-03-16T12:06:32.973Z,74304
2017-03-16T12:07:46.224Z,61152
2017-03-16T12:08:58.470Z,68384
2017-03-16T12:10:11.207Z,80096
2017-03-16T12:11:24.480Z,81952
2017-03-16T12:12:37.791Z,76352
2017-03-16T12:13:51.067Z,85312
2017-03-16T12:15:03.807Z,85824
2017-03-16T12:16:16.566Z,80352
2017-03-16T12:17:28.771Z,93312
2017-03-16T12:18:41.507Z,104160
2017-03-16T12:19:54.248Z,103904
2017-03-16T12:21:06.995Z,108288
2017-03-16T12:22:20.283Z,108352
2017-03-16T12:23:33.534Z,110912
2017-03-16T12:24:46.291Z,95104
2017-03-16T12:25:59.063Z,92736
2017-03-16T12:27:11.828Z,97280
2017-03-16T12:28:25.086Z,93280
2017-03-16T12:29:37.806Z,97600
2017-03-16T12:30:50.546Z,96704
2017-03-16T12:32:03.300Z,90848
2017-03-16T12:33:16.539Z,97152
2017-03-16T12:34:29.804Z,95680
2017-03-16T12:35:43.054Z,97376
2017-03-16T12:36:56.333Z,99456
2017-03-16T12:38:09.122Z,100832
2017-03-16T12:39:22.434Z,97952
2017-03-16T12:40:35.694Z,98336
2017-03-16T12:41:48.442Z,87744
2017-03-16T12:43:01.702Z,87360
2017-03-16T12:44:15.048Z,98176
2017-03-16T12:45:28.287Z,98336
2017-03-16T12:46:41.539Z,91328
2017-03-16T12:47:54.824Z,85248
2017-03-16T12:49:08.088Z,89376
2017-03-16T12:50:21.353Z,97568
2017-03-16T12:51:34.603Z,100416
2017-03-16T12:52:47.366Z,98336
2017-03-16T12:54:00.599Z,95456
2017-03-16T12:55:13.841Z,100288
2017-03-16T12:56:27.106Z,93280
2017-03-16T12:57:40.371Z,96736
2017-03-16T12:58:53.622Z,103168
2017-03-16T13:00:06.916Z,106400
2017-03-16T13:01:20.172Z,106912
2017-03-16T13:02:32.963Z,107584
2017-03-16T13:03:45.683Z,107232
2017-03-16T13:04:58.431Z,95424
2017-03-16T13:06:11.160Z,96352
2017-03-16T13:07:24.430Z,105056
2017-03-16T13:08:37.160Z,106528
2017-03-16T13:09:49.916Z,110656
2017-03-16T13:11:02.711Z,103808
2017-03-16T13:12:15.989Z,107104
2017-03-16T13:13:28.208Z,108864
2017-03-16T13:14:41.467Z,106336
2017-03-16T13:15:54.760Z,106272
2017-03-16T13:17:07.984Z,105824
2017-03-16T13:18:21.253Z,115936
2017-03-16T13:19:34.510Z,112448
2017-03-16T13:20:47.765Z,116096
2017-03-16T13:22:01.021Z,115680
2017-03-16T13:23:14.386Z,106496
2017-03-16T13:24:27.676Z,109216
2017-03-16T13:25:40.927Z,109312
2017-03-16T13:26:53.694Z,110752
2017-03-16T13:28:06.982Z,112480
2017-03-16T13:29:20.247Z,106816
2017-03-16T13:30:32.992Z,108672
2017-03-16T13:31:46.335Z,108992
2017-03-16T13:32:59.082Z,106560
2017-03-16T13:34:12.360Z,106752
2017-03-16T13:35:25.101Z,113408
2017-03-16T13:36:37.870Z,100800
2017-03-16T13:37:50.618Z,82560
2017-03-16T13:39:03.894Z,104960
2017-03-16T13:40:17.193Z,115008
2017-03-16T13:41:29.403Z,117120
2017-03-16T13:42:42.195Z,116160
2017-03-16T13:43:55.466Z,109632
2017-03-16T13:45:08.710Z,112448
2017-03-16T13:46:21.474Z,106368
2017-03-16T13:47:34.743Z,80576
2017-03-16T13:48:48.029Z,88000
2017-03-16T13:50:01.314Z,107712
2017-03-16T13:51:14.601Z,105376
2017-03-16T13:52:26.822Z,108448
2017-03-16T13:53:39.053Z,111776
2017-03-16T13:54:52.319Z,115168
2017-03-16T13:56:05.078Z,120128
2017-03-16T13:57:17.802Z,119232
2017-03-16T13:58:31.061Z,117024
2017-03-16T13:59:44.369Z,114336
2017-03-16T14:00:57.700Z,107872
2017-03-16T14:02:10.985Z,108704
2017-03-16T14:03:23.722Z,114240
2017-03-16T14:04:36.463Z,113632
2017-03-16T14:05:49.738Z,113376
2017-03-16T14:07:03.042Z,114816
2017-03-16T14:08:16.289Z,114240
2017-03-16T14:09:28.545Z,109248
2017-03-16T14:10:41.288Z,105664
2017-03-16T14:11:54.568Z,111584
2017-03-16T14:13:07.317Z,114752
2017-03-16T14:14:20.095Z,111232
2017-03-16T14:15:33.374Z,113312
2017-03-16T14:16:46.663Z,107968
2017-03-16T14:17:59.416Z,106592
2017-03-16T14:19:12.672Z,116096
2017-03-16T14:20:25.406Z,121984
2017-03-16T14:21:38.150Z,120352
2017-03-16T14:22:50.868Z,121280
2017-03-16T14:24:03.600Z,125856
2017-03-16T14:25:16.869Z,119744
2017-03-16T14:26:29.603Z,118560
2017-03-16T14:27:42.344Z,125856
2017-03-16T14:28:55.076Z,127200
2017-03-16T14:30:08.352Z,120352
2017-03-16T14:31:21.653Z,111136
2017-03-16T14:32:34.407Z,100416
2017-03-16T14:33:47.665Z,27136
2017-03-16T14:35:00.926Z,123584
2017-03-16T14:36:14.169Z,126144
2017-03-16T14:37:27.450Z,123072
2017-03-16T14:38:40.931Z,125760
2017-03-16T14:39:54.162Z,127520
2017-03-16T14:41:07.408Z,134144
2017-03-16T14:42:20.687Z,138080
2017-03-16T14:43:33.455Z,53216
2017-03-16T14:44:46.750Z,127712
2017-03-16T14:45:59.473Z,128192
2017-03-16T14:47:12.749Z,136928
2017-03-16T14:48:25.479Z,65664
2017-03-16T14:49:38.212Z,116448
2017-03-16T14:50:51.508Z,97536
2017-03-16T14:52:04.813Z,104000
2017-03-16T14:53:17.574Z,123872
2017-03-16T14:54:30.304Z,23264
2017-03-16T14:55:43.555Z,22272
2017-03-16T14:56:56.843Z,132064
2017-03-16T14:58:09.600Z,132256
2017-03-16T14:59:22.355Z,134464
2017-03-16T15:00:35.249Z,134560
2017-03-16T15:01:48.515Z,29600
2017-03-16T15:03:01.792Z,138848
2017-03-16T15:04:15.078Z,131808
2017-03-16T15:05:27.856Z,133984
2017-03-16T15:06:40.117Z,136896
2017-03-16T15:07:53.430Z,138208
2017-03-16T15:09:06.711Z,139744
2017-03-16T15:10:19.436Z,138240
2017-03-16T15:11:32.651Z,136032
2017-03-16T15:12:45.893Z,26464
2017-03-16T15:13:59.125Z,21760
2017-03-16T15:15:12.374Z,21312
2017-03-16T15:16:25.664Z,22336
2017-03-16T15:17:38.898Z,27296
2017-03-16T15:18:52.149Z,139776
2017-03-16T15:20:05.409Z,131840
2017-03-16T15:21:18.150Z,138656
2017-03-16T15:22:31.392Z,136544
2017-03-16T15:23:44.663Z,130592
2017-03-16T15:24:57.455Z,126336
2017-03-16T15:26:10.740Z,126624
2017-03-16T15:27:23.990Z,133312
2017-03-16T15:28:37.221Z,136928
2017-03-16T15:29:49.966Z,135808
2017-03-16T15:31:03.207Z,129024
2017-03-16T15:32:16.466Z,124000
2017-03-16T15:33:29.697Z,126080
2017-03-16T15:34:41.925Z,127008
2017-03-16T15:35:55.226Z,120288
2017-03-16T15:37:08.491Z,112320
2017-03-16T15:38:21.721Z,107040
2017-03-16T15:39:34.448Z,111392
2017-03-16T15:40:47.705Z,124832
2017-03-16T15:42:00.936Z,125952
2017-03-16T15:43:13.675Z,123040
2017-03-16T15:44:26.407Z,125088
2017-03-16T15:45:39.650Z,121344
2017-03-16T15:46:52.391Z,45472
2017-03-16T15:48:05.627Z,127040
2017-03-16T15:49:18.446Z,132512
2017-03-16T15:50:31.849Z,86848
2017-03-16T15:51:44.593Z,121120
2017-03-16T15:52:57.858Z,128224
2017-03-16T15:54:11.100Z,132992
2017-03-16T15:55:24.330Z,136992
2017-03-16T15:56:37.048Z,137792
2017-03-16T15:57:50.299Z,31872
2017-03-16T15:59:03.527Z,27712
2017-03-16T16:00:16.250Z,29216
2017-03-16T16:01:29.506Z,30880
2017-03-16T16:02:42.739Z,148544
2017-03-16T16:03:55.977Z,35264
2017-03-16T16:05:08.751Z,32928
2017-03-16T16:06:21.496Z,30592
2017-03-16T16:07:34.210Z,30304
2017-03-16T16:08:46.994Z,97024
2017-03-16T16:10:00.263Z,29824
2017-03-16T16:11:13.522Z,45568
2017-03-16T16:12:26.793Z,22432
2017-03-16T16:13:39.499Z,20256
2017-03-16T16:14:52.259Z,18880
2017-03-16T16:16:05.487Z,18496
2017-03-16T16:17:18.219Z,18592
2017-03-16T16:18:31.484Z,19456
2017-03-16T16:19:44.742Z,20192
2017-03-16T16:20:57.979Z,20480
2017-03-16T16:22:11.242Z,20832
2017-03-16T16:23:24.000Z,21440
2017-03-16T16:24:36.720Z,21504
2017-03-16T16:25:49.952Z,21664
2017-03-16T16:27:03.310Z,22656
2017-03-16T16:28:16.578Z,25216
2017-03-16T16:29:29.330Z,33376
2017-03-16T16:30:42.574Z,127200
2017-03-16T16:31:55.800Z,124096
2017-03-16T16:33:09.039Z,131744
2017-03-16T16:34:22.265Z,134016
2017-03-16T16:35:35.512Z,105024
2017-03-16T16:36:48.762Z,96448
2017-03-16T16:38:01.996Z,59040
2017-03-16T16:39:14.730Z,49664
2017-03-16T16:40:28.079Z,46688
2017-03-16T16:41:41.462Z,41376
2017-03-16T16:42:54.922Z,38880
2017-03-16T16:44:08.319Z,36960
2017-03-16T16:45:21.561Z,50752
2017-03-16T16:46:34.800Z,113568